createdAt,value
2022-08-07T00:01:42.947Z,9.40
2022-08-07T00:03:53.563Z,9.45
2022-08-07T00:06:33.074Z,8.80
2022-08-07T00:09:17.205Z,8.82
2022-08-07T00:11:56.238Z,9.80
2022-08-07T00:14:31.540Z,9.68
2022-08-07T00:17:02.699Z,9.20
2022-08-07T00:19:34.479Z,9.07
2022-08-07T00:22:24.514Z,8.93
2022-08-07T00:25:11.127Z,9.32
2022-08-07T00:27:52.225Z,9.13
2022-08-07T00:30:27.258Z,10.02
2022-08-07T00:32:57.065Z,9.52
2022-08-07T00:35:24.384Z,9.05
2022-08-07T00:37:51.292Z,10.02
2022-08-07T00:40:39.194Z,10.77
2022-08-07T00:43:09.704Z,9.70
2022-08-07T00:45:38.428Z,9.45
2022-08-07T00:48:10.351Z,9.27
2022-08-07T00:50:50.777Z,8.77
2022-08-07T00:53:20.356Z,9.35
2022-08-07T00:56:03.106Z,9.02
2022-08-07T00:58:31.354Z,9.15
2022-08-07T01:00:58.758Z,9.32
2022-08-07T01:03:56.981Z,9.07
2022-08-07T01:06:12.732Z,8.68
2022-08-07T01:08:43.040Z,8.48
2022-08-07T01:12:27.805Z,8.90
2022-08-07T01:14:05.255Z,9.23
2022-08-07T01:16:32.255Z,9.35
2022-08-07T01:18:59.193Z,9.02
2022-08-07T01:21:26.968Z,9.65
2022-08-07T01:23:56.968Z,9.45
2022-08-07T01:26:26.028Z,9.27
2022-08-07T01:28:53.976Z,9.15
2022-08-07T01:31:21.165Z,8.82
2022-08-07T01:33:55.956Z,8.52
2022-08-07T01:36:33.776Z,9.15
2022-08-07T01:39:01.318Z,8.68
2022-08-07T01:41:31.392Z,8.60
2022-08-07T01:43:59.233Z,8.40
2022-08-07T01:46:28.349Z,8.80
2022-08-07T01:48:57.957Z,8.85
2022-08-07T01:52:02.364Z,8.35
2022-08-07T01:54:32.578Z,8.57
2022-08-07T01:57:24.466Z,8.18
2022-08-07T02:00:12.808Z,8.95
2022-08-07T02:03:19.320Z,9.18
2022-08-07T02:05:59.915Z,8.95
2022-08-07T02:08:29.338Z,8.45
2022-08-07T02:10:59.308Z,9.18
2022-08-07T02:13:57.880Z,8.98
2022-08-07T02:16:18.095Z,9.35
2022-08-07T02:18:47.727Z,9.45
2022-08-07T02:21:17.008Z,9.35
2022-08-07T02:23:45.816Z,8.68
2022-08-07T02:26:32.484Z,8.63
2022-08-07T02:29:03.318Z,8.60
2022-08-07T02:31:32.725Z,8.63
2022-08-07T02:34:03.914Z,8.88
2022-08-07T02:36:39.958Z,8.27
2022-08-07T02:39:17.278Z,8.77
2022-08-07T02:41:58.121Z,9.07
2022-08-07T02:44:34.600Z,8.95
2022-08-07T02:47:03.768Z,8.88
2022-08-07T02:49:58.722Z,9.18
2022-08-07T02:52:32.029Z,8.60
2022-08-07T02:55:03.757Z,8.55
2022-08-07T02:57:35.038Z,9.43
2022-08-07T03:00:04.896Z,9.70
2022-08-07T03:02:42.033Z,8.52
2022-08-07T03:05:24.472Z,9.40
2022-08-07T03:08:07.766Z,9.50
2022-08-07T03:10:40.927Z,8.90
2022-08-07T03:13:15.493Z,9.13
2022-08-07T03:15:55.604Z,9.98
2022-08-07T03:18:24.503Z,9.73
2022-08-07T03:21:03.317Z,9.30
2022-08-07T03:23:33.796Z,10.23
2022-08-07T03:26:23.394Z,9.65
2022-08-07T03:28:51.633Z,10.32
2022-08-07T03:31:24.637Z,9.93
2022-08-07T03:34:01.259Z,10.68
2022-08-07T03:36:29.794Z,9.70
2022-08-07T03:39:05.202Z,10.25
2022-08-07T03:41:42.475Z,9.95
2022-08-07T03:44:15.351Z,10.75
2022-08-07T03:47:13.465Z,10.30
2022-08-07T03:49:30.265Z,10.10
2022-08-07T03:52:01.964Z,9.88
2022-08-07T03:54:35.606Z,11.45
2022-08-07T03:57:07.230Z,9.93
2022-08-07T03:59:34.558Z,9.30
2022-08-07T04:02:01.940Z,9.52
2022-08-07T04:04:28.946Z,10.40
2022-08-07T04:07:00.178Z,10.32
2022-08-07T04:09:44.480Z,11.18
2022-08-07T04:12:25.319Z,11.27
2022-08-07T04:14:56.469Z,11.85
2022-08-07T04:17:23.261Z,11.85
2022-08-07T04:20:11.634Z,12.35
2022-08-07T04:22:53.453Z,11.55
2022-08-07T04:25:23.503Z,11.68
2022-08-07T04:27:59.354Z,11.45
2022-08-07T04:30:43.927Z,12.40
2022-08-07T04:33:15.823Z,11.55
2022-08-07T04:35:50.554Z,11.27
2022-08-07T04:38:18.671Z,10.15
2022-08-07T04:40:51.913Z,11.55
2022-08-07T04:44:10.082Z,10.93
2022-08-07T04:46:34.380Z,11.98
2022-08-07T04:49:18.096Z,10.38
2022-08-07T04:52:00.014Z,10.80
2022-08-07T04:54:55.165Z,11.13
2022-08-07T04:58:13.257Z,11.57
2022-08-07T05:00:33.524Z,11.90
2022-08-07T05:03:59.921Z,12.13
2022-08-07T05:06:28.349Z,11.02
2022-08-07T05:09:18.773Z,10.93
2022-08-07T05:12:09.335Z,12.18
2022-08-07T05:14:56.261Z,11.80
2022-08-07T05:18:00.350Z,12.10
2022-08-07T05:20:21.399Z,12.60
2022-08-07T05:22:51.712Z,13.32
2022-08-07T05:25:25.727Z,13.52
2022-08-07T05:28:20.317Z,14.48
2022-08-07T05:30:52.311Z,12.77
2022-08-07T05:33:20.913Z,12.85
2022-08-07T05:35:52.838Z,13.13
2022-08-07T05:38:59.994Z,12.45
2022-08-07T05:41:14.465Z,11.57
2022-08-07T05:44:01.300Z,11.18
2022-08-07T05:46:37.275Z,10.32
2022-08-07T05:49:11.875Z,11.00
2022-08-07T05:51:42.174Z,10.32
2022-08-07T05:54:19.505Z,10.70
2022-08-07T05:56:57.872Z,9.82
2022-08-07T05:59:26.214Z,11.13
2022-08-07T06:01:57.130Z,10.40
2022-08-07T06:04:26.286Z,11.00
2022-08-07T06:07:03.690Z,10.00
2022-08-07T06:10:04.456Z,9.68
2022-08-07T06:12:21.094Z,8.38
2022-08-07T06:14:55.051Z,9.10
2022-08-07T06:17:32.085Z,9.27
2022-08-07T06:20:05.906Z,8.77
2022-08-07T06:22:42.217Z,8.65
2022-08-07T06:25:29.007Z,8.18
2022-08-07T06:28:09.356Z,7.57
2022-08-07T06:30:45.355Z,7.03
2022-08-07T06:33:16.181Z,7.82
2022-08-07T06:35:47.579Z,7.20
2022-08-07T06:38:30.351Z,7.10
2022-08-07T06:40:59.727Z,6.47
2022-08-07T06:43:39.413Z,6.60
2022-08-07T06:46:12.238Z,5.95
2022-08-07T06:48:42.142Z,6.68
2022-08-07T06:51:30.952Z,6.35
2022-08-07T06:55:28.554Z,5.72
2022-08-07T06:56:50.761Z,6.85
2022-08-07T07:00:14.774Z,5.90
2022-08-07T07:02:48.802Z,5.65
2022-08-07T07:05:08.048Z,6.03
2022-08-07T07:07:59.963Z,5.57
2022-08-07T07:10:29.463Z,6.00
2022-08-07T07:13:07.904Z,5.20
2022-08-07T07:15:43.127Z,5.28
2022-08-07T07:18:47.097Z,5.57
2022-08-07T07:21:40.337Z,6.88
2022-08-07T07:24:16.717Z,6.20
2022-08-07T07:26:51.781Z,6.18
2022-08-07T07:29:39.626Z,5.75
2022-08-07T07:32:13.944Z,6.38
2022-08-07T07:34:45.295Z,7.60
2022-08-07T07:37:22.045Z,6.97
2022-08-07T07:40:04.004Z,7.80
2022-08-07T07:42:43.806Z,6.82
2022-08-07T07:45:19.177Z,6.80
2022-08-07T07:47:53.265Z,6.32
2022-08-07T07:50:36.409Z,7.00
2022-08-07T07:53:20.483Z,7.95
2022-08-07T07:56:00.669Z,7.88
2022-08-07T07:58:40.577Z,7.43
2022-08-07T08:02:03.991Z,7.93
2022-08-07T08:04:09.299Z,5.88
2022-08-07T08:06:50.592Z,6.22
2022-08-07T08:09:20.560Z,6.30
2022-08-07T08:12:01.619Z,6.50
2022-08-07T08:14:34.331Z,5.68
2022-08-07T08:17:32.343Z,4.95
2022-08-07T08:20:17.914Z,5.15
2022-08-07T08:23:12.451Z,5.38
2022-08-07T08:26:06.688Z,5.38
2022-08-07T08:28:39.209Z,5.20
2022-08-07T08:31:22.792Z,5.05
2022-08-07T08:34:05.556Z,4.85
2022-08-07T08:36:36.334Z,3.80
2022-08-07T08:39:08.264Z,4.25
2022-08-07T08:41:57.329Z,4.28
2022-08-07T08:44:44.303Z,3.40
2022-08-07T08:47:52.003Z,3.70
2022-08-07T08:50:34.918Z,3.47
2022-08-07T08:53:33.423Z,3.47
2022-08-07T08:56:06.140Z,3.92
2022-08-07T08:58:57.134Z,3.30
2022-08-07T09:01:59.762Z,3.20
2022-08-07T09:04:55.420Z,3.42
2022-08-07T09:07:34.069Z,3.72
2022-08-07T09:10:33.965Z,3.53
2022-08-07T09:13:35.309Z,3.25
2022-08-07T09:16:22.696Z,3.70
2022-08-07T09:19:52.157Z,3.67
2022-08-07T09:24:31.146Z,3.50
2022-08-07T09:25:53.503Z,3.65
2022-08-07T09:30:06.179Z,3.13
2022-08-07T09:31:56.057Z,3.53
2022-08-07T09:34:56.388Z,3.15
2022-08-07T09:37:48.421Z,3.75
2022-08-07T09:40:29.943Z,3.42
2022-08-07T09:43:00.575Z,3.60
2022-08-07T09:47:42.586Z,3.63
2022-08-07T09:50:01.496Z,3.28
2022-08-07T09:52:15.605Z,3.63
2022-08-07T09:55:17.436Z,3.63
2022-08-07T09:58:32.601Z,3.42
2022-08-07T10:01:51.326Z,3.30
2022-08-07T10:04:52.862Z,3.25
2022-08-07T10:07:25.637Z,3.10
2022-08-07T10:10:21.843Z,2.92
2022-08-07T10:13:29.706Z,2.85
2022-08-07T10:16:01.198Z,2.95
2022-08-07T10:18:51.671Z,3.47
2022-08-07T10:22:12.313Z,3.20
2022-08-07T10:24:50.658Z,3.40
2022-08-07T10:27:46.288Z,2.80
2022-08-07T10:30:18.642Z,3.05
2022-08-07T10:33:15.318Z,3.20
2022-08-07T10:36:36.249Z,3.95
2022-08-07T10:39:22.922Z,3.03
2022-08-07T10:42:20.686Z,2.60
2022-08-07T10:45:09.736Z,3.15
2022-08-07T10:47:53.765Z,2.58
2022-08-07T10:50:50.297Z,2.83
2022-08-07T10:54:00.109Z,2.90
2022-08-07T10:56:49.108Z,3.13
2022-08-07T10:59:40.595Z,2.88
2022-08-07T11:02:34.318Z,3.22
2022-08-07T11:05:44.847Z,2.88
2022-08-07T11:08:54.488Z,2.45
2022-08-07T11:11:35.632Z,2.90
2022-08-07T11:14:43.555Z,2.83
2022-08-07T11:17:13.791Z,2.60
2022-08-07T11:20:03.380Z,2.90
2022-08-07T11:22:51.545Z,3.00
2022-08-07T11:25:42.503Z,2.90
2022-08-07T11:28:24.762Z,2.80
2022-08-07T11:31:22.151Z,2.88
2022-08-07T11:34:00.435Z,2.70
2022-08-07T11:36:56.760Z,2.78
2022-08-07T11:40:01.291Z,2.85
2022-08-07T11:43:00.400Z,2.53
2022-08-07T11:45:53.583Z,2.15
2022-08-07T11:49:51.579Z,2.60
2022-08-07T11:52:29.385Z,2.60
2022-08-07T11:56:15.503Z,2.38
2022-08-07T11:58:21.397Z,2.90
2022-08-07T12:02:00.609Z,2.58
2022-08-07T12:04:42.910Z,2.83
2022-08-07T12:07:27.182Z,2.90
2022-08-07T12:10:05.775Z,3.28
2022-08-07T12:12:40.203Z,3.30
2022-08-07T12:15:46.216Z,2.90
2022-08-07T12:18:45.521Z,2.90
2022-08-07T12:21:21.050Z,2.80
2022-08-07T12:24:37.798Z,2.97
2022-08-07T12:27:14.965Z,2.97
2022-08-07T12:29:59.244Z,2.67
2022-08-07T12:32:52.368Z,2.65
2022-08-07T12:35:20.609Z,2.80
2022-08-07T12:38:11.188Z,2.95
2022-08-07T12:40:47.667Z,2.50
2022-08-07T12:44:01.485Z,2.70
2022-08-07T12:46:09.790Z,2.70
2022-08-07T12:48:53.266Z,2.40
2022-08-07T12:51:46.438Z,3.13
2022-08-07T12:54:38.460Z,3.00
2022-08-07T12:57:10.003Z,2.92
2022-08-07T12:59:55.182Z,3.05
2022-08-07T13:02:49.811Z,3.03
2022-08-07T13:06:02.950Z,3.03
2022-08-07T13:09:02.408Z,3.17
2022-08-07T13:12:02.087Z,2.75
2022-08-07T13:15:03.225Z,2.50
2022-08-07T13:17:57.825Z,2.85
2022-08-07T13:20:44.617Z,3.20
2022-08-07T13:24:01.821Z,3.00
2022-08-07T13:26:15.759Z,2.95
2022-08-07T13:28:58.210Z,3.15
2022-08-07T13:31:54.919Z,3.10
2022-08-07T13:34:44.731Z,2.80
2022-08-07T13:37:27.569Z,2.90
2022-08-07T13:40:35.033Z,3.05
2022-08-07T13:43:12.300Z,2.95
2022-08-07T13:46:12.414Z,3.03
2022-08-07T13:48:34.597Z,2.63
2022-08-07T13:51:02.891Z,2.85
2022-08-07T13:54:07.272Z,3.28
2022-08-07T13:56:41.169Z,2.75
2022-08-07T13:59:27.280Z,3.00
2022-08-07T14:02:07.630Z,2.90
2022-08-07T14:04:57.809Z,3.10
2022-08-07T14:07:30.494Z,2.80
2022-08-07T14:10:02.091Z,3.00
2022-08-07T14:12:54.917Z,2.72
2022-08-07T14:15:44.451Z,2.80
2022-08-07T14:18:44.313Z,2.88
2022-08-07T14:22:01.476Z,2.70
2022-08-07T14:24:36.300Z,2.58
2022-08-07T14:28:11.455Z,2.83
2022-08-07T14:30:07.917Z,2.90
2022-08-07T14:33:00.147Z,2.58
2022-08-07T14:35:43.028Z,2.88
2022-08-07T14:38:26.466Z,2.70
2022-08-07T14:41:03.854Z,2.50
2022-08-07T14:43:58.526Z,2.35
2022-08-07T14:46:31.484Z,2.75
2022-08-07T14:49:55.854Z,3.00
2022-08-07T14:52:03.304Z,2.75
2022-08-07T14:54:35.888Z,3.05
2022-08-07T14:57:15.086Z,2.60
2022-08-07T15:05:25.309Z,2.60
2022-08-07T15:07:52.789Z,2.90
2022-08-07T15:10:26.545Z,2.50
2022-08-07T15:13:00.720Z,2.47
2022-08-07T15:18:36.218Z,2.45
2022-08-07T15:21:58.772Z,2.50
2022-08-07T15:30:16.499Z,2.60
2022-08-07T15:36:00.786Z,2.58
2022-08-07T15:38:33.172Z,2.60
2022-08-07T15:41:23.991Z,2.50
2022-08-07T15:44:11.351Z,2.92
2022-08-07T15:46:51.806Z,2.97
2022-08-07T15:49:25.445Z,2.70
2022-08-07T15:54:27.552Z,2.42
2022-08-07T15:56:59.083Z,2.40
2022-08-07T15:59:39.824Z,2.47
2022-08-07T16:02:23.498Z,2.55
2022-08-07T16:05:01.007Z,2.38
2022-08-07T16:08:30.944Z,2.70
2022-08-07T16:10:26.250Z,2.20
2022-08-07T16:13:57.908Z,2.50
2022-08-07T16:16:49.855Z,2.58
2022-08-07T16:20:01.626Z,2.80
2022-08-07T16:23:09.914Z,2.58
2022-08-07T16:25:55.823Z,2.60
2022-08-07T16:30:06.768Z,2.58
2022-08-07T16:32:06.385Z,2.22
2022-08-07T16:34:59.250Z,2.50
2022-08-07T16:38:06.188Z,2.13
2022-08-07T16:40:57.191Z,2.30
2022-08-07T16:44:05.789Z,2.42
2022-08-07T16:47:06.833Z,2.15
2022-08-07T16:50:20.354Z,2.60
2022-08-07T16:53:47.962Z,2.33
2022-08-07T16:55:53.941Z,2.30
2022-08-07T16:59:14.588Z,2.08
2022-08-07T17:02:53.691Z,2.38
2022-08-07T17:06:19.669Z,2.50
2022-08-07T17:09:04.164Z,2.20
2022-08-07T17:12:04.705Z,2.15
2022-08-07T17:14:42.749Z,2.47
2022-08-07T17:17:46.576Z,2.17
2022-08-07T17:20:30.926Z,2.17
2022-08-07T17:23:11.511Z,2.08
2022-08-07T17:26:03.239Z,2.20
2022-08-07T17:28:50.021Z,2.30
2022-08-07T17:32:03.106Z,2.40
2022-08-07T17:35:32.994Z,2.60
2022-08-07T17:38:05.714Z,2.17
2022-08-07T17:40:56.410Z,2.40
2022-08-07T17:43:39.671Z,2.28
2022-08-07T17:46:34.606Z,2.33
2022-08-07T17:49:23.088Z,2.20
2022-08-07T17:52:00.484Z,2.45
2022-08-07T17:54:53.120Z,1.95
2022-08-07T17:57:58.473Z,2.15
2022-08-07T18:00:34.778Z,2.08
2022-08-07T18:03:27.438Z,2.10
2022-08-07T18:06:38.247Z,2.33
2022-08-07T18:09:08.641Z,2.10
2022-08-07T18:12:18.117Z,2.25
2022-08-07T18:14:51.256Z,2.45
2022-08-07T18:18:46.258Z,2.08
2022-08-07T18:21:03.067Z,2.53
2022-08-07T18:23:50.589Z,2.47
2022-08-07T18:26:38.585Z,2.13
2022-08-07T18:30:05.424Z,2.10
2022-08-07T18:32:29.330Z,1.98
2022-08-07T18:35:01.370Z,2.22
2022-08-07T18:38:56.910Z,2.67
2022-08-07T18:41:17.258Z,2.30
2022-08-07T18:44:17.242Z,2.17
2022-08-07T18:47:00.673Z,1.90
2022-08-07T18:50:39.072Z,2.10
2022-08-07T18:53:02.994Z,2.47
2022-08-07T18:55:42.486Z,2.33
2022-08-07T18:58:51.519Z,2.40
2022-08-07T19:02:32.485Z,2.78
2022-08-07T19:05:15.121Z,2.53
2022-08-07T19:08:10.784Z,2.75
2022-08-07T19:10:51.919Z,3.05
2022-08-07T19:13:44.127Z,2.90
2022-08-07T19:17:06.846Z,2.67
2022-08-07T19:19:50.101Z,2.85
2022-08-07T19:22:31.239Z,2.97
2022-08-07T19:25:06.337Z,3.28
2022-08-07T19:28:56.893Z,3.60
2022-08-07T19:31:03.178Z,3.00
2022-08-07T19:33:18.816Z,3.17
2022-08-07T19:36:01.456Z,3.25
2022-08-07T19:38:32.017Z,3.45
2022-08-07T19:41:02.894Z,2.75
2022-08-07T19:43:48.581Z,3.33
2022-08-07T19:46:26.627Z,3.28
2022-08-07T19:49:08.858Z,3.00
2022-08-07T19:51:52.068Z,2.90
2022-08-07T19:54:29.471Z,3.03
2022-08-07T19:58:02.616Z,3.40
2022-08-07T19:59:56.079Z,3.47
2022-08-07T20:02:34.500Z,3.15
2022-08-07T20:05:08.039Z,3.40
2022-08-07T20:07:47.432Z,3.03
2022-08-07T20:10:36.282Z,3.35
2022-08-07T20:13:23.547Z,3.28
2022-08-07T20:15:54.032Z,3.42
2022-08-07T20:18:33.781Z,3.05
2022-08-07T20:21:14.816Z,3.10
2022-08-07T20:23:57.796Z,3.03
2022-08-07T20:26:38.539Z,3.67
2022-08-07T20:29:47.005Z,3.35
2022-08-07T20:32:03.797Z,3.67
2022-08-07T20:34:50.300Z,3.08
2022-08-07T20:37:24.026Z,3.15
2022-08-07T20:40:04.342Z,3.00
2022-08-07T20:42:33.361Z,3.05
2022-08-07T20:45:01.455Z,3.80
2022-08-07T20:47:56.632Z,2.90
2022-08-07T20:50:20.858Z,3.58
2022-08-07T20:52:51.118Z,3.88
2022-08-07T20:55:23.775Z,2.95
2022-08-07T20:58:02.398Z,3.40
2022-08-07T21:00:44.257Z,2.90
2022-08-07T21:03:16.006Z,2.90
2022-08-07T21:05:54.931Z,3.70
2022-08-07T21:08:44.612Z,3.83
2022-08-07T21:11:17.454Z,3.53
2022-08-07T21:14:20.106Z,3.55
2022-08-07T21:18:02.841Z,3.47
2022-08-07T21:20:00.779Z,3.72
2022-08-07T21:22:53.705Z,3.60
2022-08-07T21:25:56.222Z,3.67
2022-08-07T21:28:48.850Z,4.10
2022-08-07T21:32:42.284Z,4.32
2022-08-07T21:34:46.088Z,4.78
2022-08-07T21:37:23.792Z,4.60
2022-08-07T21:39:59.432Z,4.75
2022-08-07T21:42:46.594Z,5.22
2022-08-07T21:46:08.470Z,4.93
2022-08-07T21:48:57.520Z,4.75
2022-08-07T21:51:51.272Z,4.70
2022-08-07T21:54:36.213Z,5.30
2022-08-07T21:57:40.114Z,4.43
2022-08-07T22:00:25.199Z,4.68
2022-08-07T22:03:18.853Z,5.38
2022-08-07T22:06:01.705Z,5.40
2022-08-07T22:08:46.004Z,5.40
2022-08-07T22:11:18.025Z,5.75
2022-08-07T22:13:53.012Z,6.05
2022-08-07T22:16:46.681Z,5.75
2022-08-07T22:19:30.140Z,5.35
2022-08-07T22:22:27.434Z,5.10
2022-08-07T22:25:12.053Z,5.40
2022-08-07T22:28:29.349Z,4.88
2022-08-07T22:31:05.267Z,5.63
2022-08-07T22:33:56.408Z,5.32
2022-08-07T22:36:38.495Z,5.43
2022-08-07T22:39:16.417Z,5.60
2022-08-07T22:42:18.746Z,5.13
2022-08-07T22:45:02.307Z,6.18
2022-08-07T22:47:56.567Z,5.63
2022-08-07T22:50:37.990Z,6.28
2022-08-07T22:54:07.385Z,6.15
2022-08-07T22:56:39.107Z,6.10
2022-08-07T22:59:46.577Z,6.22
2022-08-07T23:02:27.522Z,5.63
2022-08-07T23:06:07.048Z,5.40
2022-08-07T23:08:04.869Z,6.10
2022-08-07T23:11:16.576Z,6.47
2022-08-07T23:14:25.652Z,6.20
2022-08-07T23:17:20.011Z,6.85
2022-08-07T23:20:51.500Z,7.05
2022-08-07T23:24:04.178Z,6.70
2022-08-07T23:27:15.647Z,7.25
2022-08-07T23:30:37.032Z,6.30
2022-08-07T23:34:34.865Z,6.57
2022-08-07T23:36:30.575Z,6.50
2022-08-07T23:39:40.826Z,7.18
2022-08-07T23:42:35.462Z,6.57
2022-08-07T23:46:01.991Z,5.97
2022-08-07T23:48:41.039Z,6.50
2022-08-07T23:53:05.707Z,6.28
2022-08-07T23:54:43.830Z,6.80
2022-08-07T23:57:29.281Z,6.38
